Springdale, MT (59082)

4:37 AM MDT on August 27, 2014 (GMT -0600)
Mission | Change Station
CLOSE
Current Station
Airport
Location: Livingston,
Elevation: 4656 ft
Nearby Weather Stations

Elev 4656 ft 45.70 °N, 110.44 °W | Updated 44 minutes ago

Clear
Clear
50 °F
Feels Like 50 °F
N
4
Wind Variable Wind from Variable

Today
High -- | Low -- °F
--% Chance of Precip.
Yesterday
High -- | Low -- °F
Precip. -- in
6:35 AM 8:07 PM
Waxing Crescent, 3% visible
Pressure 30.06 in
Visibility 10.0 miles
Clouds Clear
Dew Point 42 °F
Humidity 74%
Rainfall 0.00 in
Snow Depth Not available.
UV 0 out of 12
Pollen 7.90 out of 12
Air Quality Not available.
Flu Activity Not available.
METAR KLVM 270953Z AUTO VRB03KT 10SM CLR 10/06 A3016 RMK AO2 SLP177 T01000056

More Conditions Fewer Conditions

Pressure 30.06 in
Visibility 10.0 miles
Clouds Clear
Dew Point 42 °F
Humidity 74%
Rainfall 0.00 in
Snow Depth Not available.
UV 0 out of 12
Pollen 7.90 out of 12
Air Quality Not available.
Flu Activity Not available.
METAR KLVM 270953Z AUTO VRB03KT 10SM CLR 10/06 A3016 RMK AO2 SLP177 T01000056

More Conditions Fewer Conditions

10-Day Weather Forecast

Almanac

Astronomy

Aug. 27, 2014 Rise Set
Actual Time 6:35 AM MDT 8:07 PM MDT
Civil Twilight 6:04 AM MDT 8:39 PM MDT
Nautical Twilight 5:26 AM MDT 9:16 PM MDT
Astronomical Twilight 4:46 AM MDT 9:57 PM MDT
Moon 8:43 AM MDT 8:52 PM MDT
Length of Visible Light 14h 34m
Length of Day
13h 32m
Tomorrow will be 3m 3s shorter.
Waxing Crescent, 3% of the Moon is Illuminated
Today
Waxing Crescent
Sep 2
First Quarter
Sep 8
Full
Sep 15
Last Quarter
Sep 24
New

Today's Extremes

State Highs State Lows

Community

WunderPhotos

Upload Photos

1,747,661 photos uploaded!

Nearby

Snow Depth

Station Depth Elevation
Placer Basin 0 in 8830 ft
South Fork Shields 0 in 8100 ft
Porcupine 1 in 6500 ft
Sacajawea 0 in 6550 ft
Monument Peak 0 in 8850 ft

Earthquake Activity

City Distance Mag. Time & Date
No recent earthquake activity has been reported nearby.
Minimum magnitude displayed is 2.5.

Coastal Water Temperatures

Place Temperature
No Stations Reporting

Nearby Weather Stations